Flight Track Log - Related Links

Times and Time Zones

All times are in EDT time to prevent confusion due to time zone crossing. See the N601AA flight status page for this flight to view local times or setup timezone preferences in your user account.

Time Position Orientation Groundspeed Altitude Reporting Facility
EDT Latitude Longitude Course Direction KTS MPH feet Rate Location/Type
Mon 09:07:47 PM 36.1189 -80.0622 302° West 252 290 5,600  Level Atlanta Center
Mon 09:08:47 PM 36.1631 -80.1322 308° West 279 321 8,100 2,500 Climbing Atlanta Center
Mon 09:09:47 PM 36.2133 -80.2119 308° West 279 321 10,600 2,450 Climbing Atlanta Center
Mon 09:10:47 PM 36.2681 -80.2944 309° West 290 334 13,000 2,450 Climbing Atlanta Center
Mon 09:11:47 PM 36.3189 -80.3875 304° West 316 364 15,500 2,450 Climbing Atlanta Center
Mon 09:12:00 PM 36.4373 -80.5413 302° West  Level FlightAware Approximate
Mon 09:12:47 PM 36.3636 -80.4936 298° West 327 376 17,900  Level Atlanta Center
Mon 09:13:47 PM 36.4128 -80.6050 299° West 349 402 20,400 2,300 Climbing Atlanta Center
Mon 09:14:47 PM 36.4639 -80.7189 299° West 367 422 22,500 1,550 Climbing Atlanta Center
Mon 09:15:47 PM 36.5153 -80.8433 297° West 386 444 23,500 1,050 Climbing Atlanta Center
Mon 09:16:47 PM 36.5706 -80.9706 298° West 398 458 24,600 1,100 Climbing Atlanta Center
Mon 09:17:47 PM 36.6278 -81.1003 299° West 420 483 25,700 1,050 Climbing Atlanta Center
Mon 09:18:47 PM 36.6853 -81.2353 298° West 433 498 26,700 1,050 Climbing Atlanta Center
Mon 09:19:47 PM 36.7425 -81.3681 298° West 433 498 27,800 650 Climbing Atlanta Center
Mon 09:20:47 PM 36.8017 -81.5058 298° West 443 510 28,000 82 Climbing Atlanta Center
Mon 09:22:13 PM 36.8844 -81.7147 296° West 463 533 28,000  Level Indianapolis Center
Mon 09:23:15 PM 36.9458 -81.8622 298° West 474 545 28,000  Level Indianapolis Center
Mon 09:24:16 PM 37.0067 -82.0086 298° West 475 547 28,000  Level Indianapolis Center
Mon 09:25:18 PM 37.0669 -82.1561 297° West 475 547 28,000  Level Indianapolis Center
Mon 09:26:19 PM 37.1275 -82.3033 297° West 475 547 28,000  Level Indianapolis Center
Mon 09:27:21 PM 37.1881 -82.4514 297° West 475 547 28,000 -339 Level Indianapolis Center
Mon 09:28:23 PM 37.2489 -82.5981 298° West 476 548 27,300 -1,561 Descending Indianapolis Center
Mon 09:29:24 PM 37.3178 -82.7722 296° West 477 549 24,800 -2,244 Descending Indianapolis Center
Mon 09:30:26 PM 37.3753 -82.9117 297° West 464 534 22,700 -2,000 Descending Indianapolis Center
Mon 09:31:27 PM 37.4303 -83.0483 297° West 448 516 20,700 -2,000 Descending Indianapolis Center
Mon 09:32:29 PM 37.4856 -83.1864 297° West 446 513 18,600 -2,049 Descending Indianapolis Center
Mon 09:33:30 PM 37.5403 -83.3242 297° West 445 512 16,500 -2,049 Descending Indianapolis Center
Mon 09:34:32 PM 37.5928 -83.4533 297° West 424 488 14,400 -2,146 Descending Indianapolis Center
Mon 09:35:33 PM 37.6483 -83.5944 296° West 395 455 12,100 -1,659 Descending Indianapolis Center
Mon 09:36:35 PM 37.6942 -83.7103 297° West 377 434 11,000 -537 Descending Indianapolis Center
Mon 09:37:36 PM 37.7381 -83.8256 296° West 370 426 11,000 -195 Level Indianapolis Center
Mon 09:38:38 PM 37.7811 -83.9361 296° West 358 412 10,600 -1,122 Descending Indianapolis Center
Mon 09:39:39 PM 37.8175 -84.0292 296° West 310 357 8,700 -1,854 Descending Indianapolis Center
Mon 09:40:41 PM 37.8531 -84.1175 297° West 289 333 6,800 -1,854 Descending Indianapolis Center
Mon 09:41:42 PM 37.8892 -84.2081 297° West 286 329 4,900 -1,366 Descending Indianapolis Center
Mon 09:42:44 PM 37.9297 -84.3139 296° West 286 329 4,000 -439 Descending Indianapolis Center
Mon 09:43:45 PM 37.9667 -84.4083 296° West 290 334 4,000  Level Indianapolis Center
Mon 09:44:46 PM 38.0133 -84.4772 311° West 278 320 4,000  Level Indianapolis Center
Mon 09:45:48 PM 38.0828 -84.4686 North 259 298 4,000 -195 Level Indianapolis Center
Mon 09:46:49 PM 38.1581 -84.4581 North 261 300 3,600 -537 Descending Indianapolis Center
Mon 09:47:51 PM 38.1506 -84.5131 260° West 259 298 2,900 -537 Descending Indianapolis Center
Mon 09:48:52 PM 38.1019 -84.5333 198° South 219 252 2,500 -488 Descending Indianapolis Center
Mon 09:49:54 PM 38.0661 -84.5731 221° Southwest 181 208 1,900 -581 Descending Indianapolis Center
Mon 09:51:00 PM 38.0333 -84.6000 288° West  Level FlightAware Approximate

Login

Don't have an account? Register now (free) for customized features, flight alerts, and more!